createdAt,value
2019-03-22T00:01:23.240Z,43.18
2019-03-22T00:03:55.615Z,42.75
2019-03-22T00:06:29.314Z,42.03
2019-03-22T00:09:03.948Z,42.30
2019-03-22T00:11:36.077Z,41.86
2019-03-22T00:14:10.158Z,41.24
2019-03-22T00:16:42.589Z,40.76
2019-03-22T00:19:18.303Z,40.33
2019-03-22T00:21:49.370Z,40.25
2019-03-22T00:24:24.650Z,40.36
2019-03-22T00:26:56.396Z,40.86
2019-03-22T00:29:31.286Z,40.26
2019-03-22T00:32:04.582Z,40.16
2019-03-22T00:34:37.126Z,40.35
2019-03-22T00:37:09.006Z,40.38
2019-03-22T00:39:40.148Z,40.51
2019-03-22T00:42:12.663Z,40.55
2019-03-22T00:44:46.673Z,40.49
2019-03-22T00:47:18.198Z,40.94
2019-03-22T00:49:49.751Z,40.68
2019-03-22T00:52:21.163Z,40.72
2019-03-22T00:54:55.175Z,40.76
2019-03-22T00:57:28.634Z,40.51
2019-03-22T01:00:02.842Z,40.78
2019-03-22T01:02:35.873Z,41.08
2019-03-22T01:05:10.055Z,41.05
2019-03-22T01:07:41.651Z,41.14
2019-03-22T01:10:13.778Z,41.16
2019-03-22T01:12:45.230Z,41.60
2019-03-22T01:15:17.719Z,42.30
2019-03-22T01:17:48.820Z,43.35
2019-03-22T01:20:22.553Z,42.45
2019-03-22T01:22:55.353Z,42.10
2019-03-22T01:25:27.506Z,42.17
2019-03-22T01:28:01.032Z,42.55
2019-03-22T01:30:34.807Z,43.01
2019-03-22T01:33:06.620Z,42.46
2019-03-22T01:35:39.744Z,43.17
2019-03-22T01:38:14.181Z,43.02
2019-03-22T01:40:48.819Z,42.81
2019-03-22T01:43:22.365Z,43.02
2019-03-22T01:45:55.706Z,42.20
2019-03-22T01:48:27.234Z,42.25
2019-03-22T01:51:00.446Z,42.16
2019-03-22T01:53:32.637Z,42.21
2019-03-22T01:56:03.777Z,41.91
2019-03-22T01:58:34.495Z,41.85
2019-03-22T02:01:06.685Z,42.55
2019-03-22T02:03:39.574Z,42.04
2019-03-22T02:06:12.110Z,41.91
2019-03-22T02:08:45.202Z,42.37
2019-03-22T02:11:18.310Z,42.06
2019-03-22T02:13:51.301Z,41.94
2019-03-22T02:16:23.835Z,42.40
2019-03-22T02:18:55.300Z,42.14
2019-03-22T02:21:28.299Z,42.17
2019-03-22T02:24:03.975Z,42.05
2019-03-22T02:26:38.256Z,41.91
2019-03-22T02:29:10.523Z,41.98
2019-03-22T02:31:45.096Z,41.89
2019-03-22T02:34:19.489Z,41.90
2019-03-22T02:36:51.498Z,42.43
2019-03-22T02:39:24.818Z,42.15
2019-03-22T02:41:57.078Z,42.95
2019-03-22T02:44:30.613Z,43.25
2019-03-22T02:47:03.128Z,43.21
2019-03-22T02:49:33.856Z,42.96
2019-03-22T02:52:06.112Z,43.17
2019-03-22T02:54:37.853Z,43.53
2019-03-22T02:57:10.396Z,44.49
2019-03-22T02:59:43.174Z,44.10
2019-03-22T03:02:14.633Z,44.63
2019-03-22T03:04:49.019Z,44.94
2019-03-22T03:07:20.634Z,44.78
2019-03-22T03:09:53.016Z,44.55
2019-03-22T03:12:23.798Z,44.89
2019-03-22T03:14:55.054Z,44.76
2019-03-22T03:17:27.069Z,45.01
2019-03-22T03:19:59.028Z,44.76
2019-03-22T03:22:31.209Z,44.83
2019-03-22T03:25:07.364Z,45.25
2019-03-22T03:27:40.723Z,45.12
2019-03-22T03:30:18.533Z,45.76
2019-03-22T03:32:51.042Z,45.95
2019-03-22T03:35:22.617Z,47.10
2019-03-22T03:37:54.130Z,46.31
2019-03-22T03:40:26.494Z,46.08
2019-03-22T03:42:59.858Z,46.30
2019-03-22T03:45:34.947Z,46.09
2019-03-22T03:48:08.394Z,45.70
2019-03-22T03:50:39.969Z,45.88
2019-03-22T03:53:12.180Z,45.64
2019-03-22T03:55:43.778Z,45.32
2019-03-22T03:58:15.384Z,44.77
2019-03-22T04:00:46.426Z,44.52
2019-03-22T04:03:18.058Z,44.30
2019-03-22T04:05:50.087Z,43.89
2019-03-22T04:08:21.309Z,43.67
2019-03-22T04:10:52.937Z,43.63
2019-03-22T04:13:25.186Z,43.74
2019-03-22T04:15:56.962Z,43.43
2019-03-22T04:18:28.997Z,43.87
2019-03-22T04:21:03.118Z,44.67
2019-03-22T04:23:36.922Z,44.29
2019-03-22T04:26:07.648Z,44.14
2019-03-22T04:28:40.331Z,44.53
2019-03-22T04:31:13.178Z,44.79
2019-03-22T04:33:45.162Z,44.79
2019-03-22T04:36:15.916Z,44.54
2019-03-22T04:38:47.951Z,44.86
2019-03-22T04:41:19.971Z,45.29
2019-03-22T04:43:51.096Z,46.26
2019-03-22T04:46:22.715Z,46.28
2019-03-22T04:48:55.663Z,46.25
2019-03-22T04:51:27.282Z,46.06
2019-03-22T04:54:03.546Z,45.53
2019-03-22T04:56:39.252Z,45.63
2019-03-22T04:59:19.350Z,45.13
2019-03-22T05:01:50.874Z,45.20
2019-03-22T05:04:27.357Z,44.99
2019-03-22T05:06:59.869Z,44.78
2019-03-22T05:09:33.057Z,44.89
2019-03-22T05:12:09.856Z,45.86
2019-03-22T05:14:44.678Z,45.31
2019-03-22T05:17:17.264Z,46.00
2019-03-22T05:19:54.374Z,45.71
2019-03-22T05:22:28.554Z,45.53
2019-03-22T05:25:05.003Z,45.24
2019-03-22T05:27:40.094Z,45.16
2019-03-22T05:30:31.724Z,45.12
2019-03-22T05:33:05.253Z,45.70
2019-03-22T05:35:38.661Z,46.23
2019-03-22T05:38:11.490Z,47.15
2019-03-22T05:40:46.008Z,48.09
2019-03-22T05:43:17.790Z,47.98
2019-03-22T05:45:48.526Z,48.67
2019-03-22T05:48:20.486Z,48.08
2019-03-22T05:50:52.243Z,47.60
2019-03-22T05:53:24.275Z,49.43
2019-03-22T05:55:55.797Z,48.78
2019-03-22T05:58:29.619Z,48.18
2019-03-22T06:01:02.698Z,47.80
2019-03-22T06:03:37.769Z,47.48
2019-03-22T06:06:10.768Z,47.67
2019-03-22T06:08:44.169Z,47.39
2019-03-22T06:11:15.762Z,47.93
2019-03-22T06:13:48.275Z,47.57
2019-03-22T06:16:19.319Z,47.59
2019-03-22T06:18:51.643Z,46.42
2019-03-22T06:21:25.039Z,46.46
2019-03-22T06:23:59.215Z,46.46
2019-03-22T06:26:34.521Z,46.83
2019-03-22T06:29:06.293Z,46.90
2019-03-22T06:31:40.807Z,47.13
2019-03-22T06:34:49.218Z,46.69
2019-03-22T06:37:22.860Z,46.36
2019-03-22T06:39:53.569Z,46.11
2019-03-22T06:42:25.182Z,46.08
2019-03-22T06:44:57.062Z,46.16
2019-03-22T06:47:27.966Z,46.52
2019-03-22T06:49:59.212Z,46.00
2019-03-22T06:52:33.698Z,45.88
2019-03-22T06:55:08.162Z,46.79
2019-03-22T06:57:41.811Z,45.51
2019-03-22T07:00:15.331Z,45.44
2019-03-22T07:02:46.429Z,45.61
2019-03-22T07:05:18.343Z,45.73
2019-03-22T07:07:51.276Z,45.43
2019-03-22T07:10:23.384Z,45.13
2019-03-22T07:12:55.044Z,44.58
2019-03-22T07:15:28.055Z,44.47
2019-03-22T07:17:59.557Z,44.52
2019-03-22T07:20:30.709Z,44.90
2019-03-22T07:23:02.942Z,45.60
2019-03-22T07:25:34.099Z,45.29
2019-03-22T07:28:05.161Z,44.75
2019-03-22T07:30:36.759Z,45.03
2019-03-22T07:33:10.815Z,44.70
2019-03-22T07:35:44.011Z,44.73
2019-03-22T07:38:16.144Z,44.38
2019-03-22T07:40:48.331Z,44.83
2019-03-22T07:43:19.554Z,44.06
2019-03-22T07:45:51.575Z,43.90
2019-03-22T07:48:23.487Z,43.63
2019-03-22T07:50:57.252Z,43.06
2019-03-22T07:53:29.810Z,43.50
2019-03-22T07:56:04.313Z,42.85
2019-03-22T07:58:37.033Z,42.36
2019-03-22T08:01:08.025Z,42.18
2019-03-22T08:04:03.366Z,42.35
2019-03-22T08:06:36.140Z,43.58
2019-03-22T08:09:11.431Z,42.44
2019-03-22T08:11:42.543Z,43.01
2019-03-22T08:14:16.296Z,42.89
2019-03-22T08:16:47.592Z,42.32
2019-03-22T08:19:21.265Z,41.55
2019-03-22T08:21:52.183Z,41.41
2019-03-22T08:24:24.696Z,41.17
2019-03-22T08:26:57.611Z,41.75
2019-03-22T08:29:28.876Z,41.24
2019-03-22T08:32:06.451Z,40.48
2019-03-22T08:34:41.399Z,40.99
2019-03-22T08:37:12.561Z,41.15
2019-03-22T08:39:44.701Z,40.58
2019-03-22T08:42:15.513Z,40.09
2019-03-22T08:44:46.797Z,39.35
2019-03-22T08:47:18.190Z,40.23
2019-03-22T08:49:50.731Z,39.76
2019-03-22T08:52:24.871Z,39.05
2019-03-22T08:54:58.862Z,39.05
2019-03-22T08:57:31.046Z,39.63
2019-03-22T09:00:02.287Z,38.73
2019-03-22T09:02:33.519Z,38.60
2019-03-22T09:05:04.387Z,38.32
2019-03-22T09:07:38.097Z,37.65
2019-03-22T09:10:11.148Z,37.75
2019-03-22T09:12:43.970Z,37.34
2019-03-22T09:15:15.616Z,37.06
2019-03-22T09:17:47.205Z,36.50
2019-03-22T09:20:20.030Z,36.19
2019-03-22T09:22:50.701Z,36.05
2019-03-22T09:34:11.786Z,35.51
2019-03-22T09:36:45.476Z,35.50
2019-03-22T09:39:17.762Z,35.48
2019-03-22T09:41:50.591Z,35.09
2019-03-22T09:44:21.317Z,34.72
2019-03-22T09:46:52.096Z,34.31
2019-03-22T09:49:22.971Z,34.12
2019-03-22T09:51:55.329Z,33.63
2019-03-22T09:54:26.667Z,34.07
2019-03-22T10:07:35.341Z,32.73
2019-03-22T10:10:07.997Z,32.58
2019-03-22T10:12:40.534Z,33.11
2019-03-22T10:15:12.712Z,34.22
2019-03-22T10:17:45.610Z,33.48
2019-03-22T10:20:17.722Z,33.54
2019-03-22T10:22:48.827Z,32.90
2019-03-22T10:25:22.498Z,32.99
2019-03-22T10:27:55.268Z,32.58
2019-03-22T10:30:26.510Z,31.87
2019-03-22T10:32:57.755Z,31.20
2019-03-22T10:35:29.318Z,30.46
2019-03-22T10:38:06.265Z,30.63
2019-03-22T10:40:39.890Z,30.92
2019-03-22T10:43:15.151Z,31.22
2019-03-22T10:45:47.338Z,30.74
2019-03-22T10:48:19.676Z,30.54
2019-03-22T10:50:51.290Z,30.17
2019-03-22T10:53:22.849Z,30.22
2019-03-22T10:55:54.536Z,29.44
2019-03-22T10:58:25.810Z,28.92
2019-03-22T11:00:57.837Z,29.40
2019-03-22T11:03:30.153Z,29.32
2019-03-22T11:06:02.481Z,28.46
2019-03-22T11:08:34.361Z,27.79
2019-03-22T11:11:08.874Z,28.09
2019-03-22T11:13:41.127Z,27.48
2019-03-22T11:16:12.230Z,26.87
2019-03-22T11:18:46.519Z,26.94
2019-03-22T11:21:20.844Z,26.39
2019-03-22T11:23:52.973Z,26.92
2019-03-22T11:26:24.130Z,27.40
2019-03-22T11:28:55.751Z,27.11
2019-03-22T11:31:28.768Z,27.17
2019-03-22T11:34:02.255Z,25.90
2019-03-22T11:36:34.244Z,25.04
2019-03-22T11:39:15.786Z,24.38
2019-03-22T11:41:46.879Z,25.13
2019-03-22T11:44:21.498Z,24.77
2019-03-22T11:46:54.780Z,24.69
2019-03-22T11:49:28.104Z,23.21
2019-03-22T11:52:02.873Z,22.98
2019-03-22T11:54:35.182Z,22.94
2019-03-22T11:57:07.042Z,23.08
2019-03-22T11:59:38.666Z,23.22
2019-03-22T12:02:11.255Z,22.50
2019-03-22T12:04:44.248Z,21.91
2019-03-22T12:07:17.766Z,21.61
2019-03-22T12:09:51.709Z,20.89
2019-03-22T12:12:25.744Z,19.53
2019-03-22T12:14:58.150Z,18.75
2019-03-22T12:17:29.902Z,20.26
2019-03-22T12:20:06.479Z,20.54
2019-03-22T12:22:39.921Z,19.62
2019-03-22T12:25:12.703Z,19.22
2019-03-22T12:27:44.302Z,20.44
2019-03-22T12:30:16.868Z,20.24
2019-03-22T12:32:48.845Z,18.98
2019-03-22T12:35:20.777Z,19.88
2019-03-22T12:37:51.785Z,18.67
2019-03-22T12:40:23.683Z,18.65
2019-03-22T12:42:56.559Z,18.89
2019-03-22T12:45:27.730Z,18.09
2019-03-22T12:47:58.848Z,16.53
2019-03-22T12:50:31.021Z,16.23
2019-03-22T12:53:02.170Z,15.88
2019-03-22T12:55:33.246Z,16.34
2019-03-22T12:58:04.857Z,15.23
2019-03-22T13:00:36.457Z,14.90
2019-03-22T13:03:08.057Z,13.12
2019-03-22T13:05:40.595Z,12.63
2019-03-22T13:08:11.302Z,12.80
2019-03-22T13:10:45.066Z,12.48
2019-03-22T13:13:17.935Z,12.61
2019-03-22T13:15:50.137Z,11.62
2019-03-22T13:18:20.944Z,11.72
2019-03-22T13:20:53.306Z,12.40
2019-03-22T13:23:31.272Z,12.42
2019-03-22T13:26:05.234Z,11.30
2019-03-22T13:28:43.787Z,11.21
2019-03-22T13:31:17.886Z,11.19
2019-03-22T13:33:51.792Z,10.68
2019-03-22T13:36:26.660Z,9.86
2019-03-22T13:38:58.667Z,9.16
2019-03-22T13:41:42.433Z,8.89
2019-03-22T13:44:13.839Z,9.33
2019-03-22T13:46:44.620Z,9.73
2019-03-22T13:49:15.367Z,10.31
2019-03-22T13:51:47.455Z,9.87
2019-03-22T13:54:19.899Z,9.50
2019-03-22T13:56:51.762Z,10.63
2019-03-22T13:59:23.769Z,9.88
2019-03-22T14:01:54.932Z,9.77
2019-03-22T14:04:27.333Z,10.86
2019-03-22T14:07:00.573Z,10.09
2019-03-22T14:09:32.141Z,9.68
2019-03-22T14:12:03.628Z,9.32
2019-03-22T14:14:36.457Z,9.50
2019-03-22T14:17:07.618Z,9.36
2019-03-22T14:19:38.336Z,9.47
2019-03-22T14:22:11.595Z,8.63
2019-03-22T14:24:43.283Z,9.91
2019-03-22T14:27:16.548Z,8.50
2019-03-22T14:29:48.108Z,8.82
2019-03-22T14:32:20.019Z,8.33
2019-03-22T14:34:52.084Z,7.81
2019-03-22T14:37:25.276Z,7.82
2019-03-22T14:39:55.986Z,8.45
2019-03-22T14:42:27.793Z,8.36
2019-03-22T14:44:59.307Z,8.48
2019-03-22T14:47:30.370Z,9.62
2019-03-22T14:50:02.210Z,9.26
2019-03-22T14:52:34.885Z,9.13
2019-03-22T14:55:09.629Z,9.25
2019-03-22T14:57:48.723Z,8.95
2019-03-22T15:00:15.048Z,9.58
2019-03-22T15:02:48.939Z,9.50
2019-03-22T15:05:20.928Z,9.31
2019-03-22T15:07:56.725Z,9.11
2019-03-22T15:10:31.468Z,9.36
2019-03-22T15:13:07.451Z,11.38
2019-03-22T15:16:06.390Z,11.29
2019-03-22T15:19:05.901Z,10.46
2019-03-22T15:21:55.413Z,11.09
2019-03-22T15:24:37.783Z,11.59
2019-03-22T15:27:38.211Z,12.76
2019-03-22T15:30:30.757Z,13.31
2019-03-22T15:33:34.556Z,15.34
2019-03-22T15:36:25.140Z,16.20
2019-03-22T15:39:21.699Z,17.06
2019-03-22T15:41:57.714Z,16.64
2019-03-22T15:44:31.115Z,17.31
2019-03-22T15:47:06.386Z,17.72
2019-03-22T15:49:40.790Z,18.97
2019-03-22T15:52:11.909Z,19.74
2019-03-22T15:54:42.944Z,20.17
2019-03-22T15:57:14.910Z,20.02
2019-03-22T15:59:46.452Z,20.24
2019-03-22T16:02:17.597Z,21.24
2019-03-22T16:04:49.715Z,21.10
2019-03-22T16:07:21.727Z,21.63
2019-03-22T16:09:54.894Z,21.58
2019-03-22T16:12:26.116Z,21.91
2019-03-22T16:14:58.067Z,22.43
2019-03-22T16:17:29.229Z,22.67
2019-03-22T16:20:00.419Z,22.89
2019-03-22T16:22:31.573Z,22.88
2019-03-22T16:25:05.897Z,22.54
2019-03-22T16:27:37.100Z,22.29
2019-03-22T16:30:09.616Z,22.44
2019-03-22T16:32:41.489Z,22.99
2019-03-22T16:35:13.552Z,22.81
2019-03-22T16:37:44.805Z,22.91
2019-03-22T16:40:24.146Z,22.87
2019-03-22T16:42:51.578Z,22.77
2019-03-22T16:45:44.191Z,22.04
2019-03-22T16:48:15.416Z,22.06
2019-03-22T16:50:46.179Z,21.82
2019-03-22T16:53:18.213Z,21.60
2019-03-22T16:55:54.131Z,22.13
2019-03-22T16:58:25.925Z,21.63
2019-03-22T17:00:59.019Z,21.22
2019-03-22T17:03:34.087Z,20.75
2019-03-22T17:06:08.032Z,20.32
2019-03-22T17:08:39.627Z,21.04
2019-03-22T17:11:11.576Z,20.78
2019-03-22T17:13:43.550Z,20.86
2019-03-22T17:16:15.591Z,21.08
2019-03-22T17:18:48.018Z,20.82
2019-03-22T17:21:18.834Z,20.95
2019-03-22T17:23:50.387Z,20.78
2019-03-22T17:26:21.165Z,20.86
2019-03-22T17:28:57.942Z,21.24
2019-03-22T17:31:33.987Z,21.25
2019-03-22T17:34:14.007Z,21.19
2019-03-22T17:36:39.878Z,20.71
2019-03-22T17:39:11.084Z,21.00
2019-03-22T17:41:42.193Z,21.53
2019-03-22T17:44:14.830Z,21.44
2019-03-22T17:46:48.733Z,21.19
2019-03-22T17:49:19.813Z,21.27
2019-03-22T17:51:51.756Z,21.49
2019-03-22T17:54:24.259Z,21.66
2019-03-22T17:56:56.311Z,21.93
2019-03-22T17:59:28.167Z,21.98
2019-03-22T18:02:00.793Z,21.97
2019-03-22T18:04:33.757Z,22.44
2019-03-22T18:07:07.183Z,22.61
2019-03-22T18:09:37.921Z,22.88
2019-03-22T18:12:09.107Z,22.86
2019-03-22T18:14:43.354Z,23.30
2019-03-22T18:17:15.112Z,22.80
2019-03-22T18:19:46.362Z,22.78
2019-03-22T18:22:17.857Z,22.95
2019-03-22T18:24:49.097Z,22.79
2019-03-22T18:27:19.870Z,22.99
2019-03-22T18:29:50.567Z,22.97
2019-03-22T18:32:22.161Z,23.30
2019-03-22T18:34:53.572Z,23.36
2019-03-22T18:37:24.629Z,23.22
2019-03-22T18:39:55.649Z,24.13
2019-03-22T18:42:28.043Z,24.84
2019-03-22T18:45:00.420Z,24.93
2019-03-22T18:47:33.238Z,24.25
2019-03-22T18:50:06.027Z,25.21
2019-03-22T18:52:38.553Z,25.96
2019-03-22T18:55:10.321Z,25.72
2019-03-22T18:57:42.831Z,27.09
2019-03-22T19:00:18.608Z,27.09
2019-03-22T19:02:52.076Z,28.05
2019-03-22T19:05:23.706Z,28.05
2019-03-22T19:07:54.591Z,27.99
2019-03-22T19:10:25.364Z,27.84
2019-03-22T19:13:01.321Z,27.84
2019-03-22T19:15:34.013Z,28.09
2019-03-22T19:18:06.624Z,28.66
2019-03-22T19:20:41.394Z,28.75
2019-03-22T19:23:14.953Z,28.95
2019-03-22T19:25:47.467Z,29.56
2019-03-22T19:29:47.248Z,29.90
2019-03-22T19:31:19.289Z,27.53
2019-03-22T19:33:51.837Z,29.18
2019-03-22T19:36:32.616Z,29.21
2019-03-22T19:39:10.262Z,29.03
2019-03-22T19:41:47.127Z,29.42
2019-03-22T19:44:21.999Z,29.28
2019-03-22T19:46:53.660Z,29.51
2019-03-22T19:49:27.651Z,29.33
2019-03-22T19:52:01.701Z,29.75
2019-03-22T19:54:37.304Z,29.42
2019-03-22T19:57:12.089Z,26.99
2019-03-22T19:59:43.431Z,26.19
2019-03-22T20:02:15.337Z,26.11
2019-03-22T20:04:48.063Z,27.09
2019-03-22T20:07:27.076Z,25.86
2019-03-22T20:09:57.488Z,25.86
2019-03-22T20:12:29.327Z,27.02
2019-03-22T20:15:09.344Z,26.12
2019-03-22T20:17:40.741Z,26.24
2019-03-22T20:20:13.519Z,26.17
2019-03-22T20:22:44.232Z,26.08
2019-03-22T20:25:16.327Z,26.14
2019-03-22T20:27:48.131Z,25.90
2019-03-22T20:30:23.884Z,26.05
2019-03-22T20:32:56.318Z,25.72
2019-03-22T20:35:29.221Z,26.07
2019-03-22T20:38:01.163Z,26.25
2019-03-22T20:40:32.265Z,26.54
2019-03-22T20:43:04.368Z,26.46
2019-03-22T20:45:35.127Z,26.40
2019-03-22T20:48:08.775Z,26.19
2019-03-22T20:50:44.100Z,26.62
2019-03-22T20:53:16.289Z,26.80
2019-03-22T20:55:50.066Z,26.53
2019-03-22T20:58:22.745Z,26.37
2019-03-22T21:00:54.209Z,26.32
2019-03-22T21:03:25.277Z,26.59
2019-03-22T21:05:58.322Z,26.50
2019-03-22T21:08:31.381Z,26.64
2019-03-22T21:11:03.274Z,26.47
2019-03-22T21:13:36.334Z,26.60
2019-03-22T21:16:08.223Z,27.42
2019-03-22T21:18:43.056Z,27.62
2019-03-22T21:21:18.784Z,27.65
2019-03-22T21:23:52.255Z,28.06
2019-03-22T21:26:24.183Z,27.54
2019-03-22T21:28:57.921Z,27.84
2019-03-22T21:31:28.693Z,28.04
2019-03-22T21:33:59.989Z,27.89
2019-03-22T21:36:31.903Z,28.02
2019-03-22T21:39:05.720Z,28.26
2019-03-22T21:41:36.883Z,29.45
2019-03-22T21:44:07.885Z,30.34
2019-03-22T21:46:42.523Z,31.65
2019-03-22T21:49:25.246Z,30.90
2019-03-22T21:52:02.122Z,31.05
2019-03-22T21:54:33.234Z,30.98
2019-03-22T21:57:04.333Z,30.04
2019-03-22T21:59:35.568Z,29.61
2019-03-22T22:02:06.916Z,29.67
2019-03-22T22:04:38.057Z,29.75
2019-03-22T22:07:12.180Z,29.45
2019-03-22T22:09:43.823Z,29.21
2019-03-22T22:12:29.868Z,28.93
2019-03-22T22:15:15.022Z,29.39
2019-03-22T22:17:48.364Z,29.12
2019-03-22T22:20:28.436Z,28.88
2019-03-22T22:22:56.103Z,28.60
2019-03-22T22:25:27.665Z,29.17
2019-03-22T22:27:59.878Z,28.71
2019-03-22T22:30:31.931Z,28.39
2019-03-22T22:33:03.056Z,28.32
2019-03-22T22:35:35.325Z,28.69
2019-03-22T22:38:09.841Z,29.55
2019-03-22T22:40:41.735Z,30.59
2019-03-22T22:43:13.226Z,30.75
2019-03-22T22:45:44.218Z,30.83
2019-03-22T22:48:18.175Z,30.33
2019-03-22T22:50:49.765Z,30.22
2019-03-22T22:53:23.765Z,29.79
2019-03-22T22:55:54.492Z,29.81
2019-03-22T22:58:26.555Z,29.99
2019-03-22T23:00:58.794Z,29.82
2019-03-22T23:03:31.581Z,29.89
2019-03-22T23:06:09.668Z,30.18
2019-03-22T23:08:41.577Z,30.06
2019-03-22T23:11:13.169Z,29.96
2019-03-22T23:13:44.065Z,29.96
2019-03-22T23:16:15.527Z,29.67
2019-03-22T23:18:47.502Z,29.96
2019-03-22T23:21:19.368Z,30.12
2019-03-22T23:23:52.367Z,30.51
2019-03-22T23:26:25.594Z,30.53
2019-03-22T23:28:57.660Z,30.73
2019-03-22T23:31:29.367Z,30.85
2019-03-22T23:34:01.636Z,30.69
2019-03-22T23:36:34.303Z,30.87
2019-03-22T23:39:13.174Z,30.96
2019-03-22T23:41:48.637Z,30.99
2019-03-22T23:44:21.405Z,30.96
2019-03-22T23:46:53.320Z,30.76
2019-03-22T23:49:24.550Z,31.25
2019-03-22T23:51:55.683Z,31.27
2019-03-22T23:54:27.536Z,31.40
2019-03-22T23:56:58.531Z,31.83
2019-03-22T23:59:29.443Z,31.87
